createdAt,value
2022-07-26T00:01:19.075Z,2.53
2022-07-26T00:03:48.113Z,2.35
2022-07-26T00:06:16.396Z,2.30
2022-07-26T00:08:47.380Z,2.80
2022-07-26T00:11:15.305Z,2.62
2022-07-26T00:13:42.730Z,2.97
2022-07-26T00:16:10.621Z,3.33
2022-07-26T00:18:38.318Z,3.45
2022-07-26T00:21:05.971Z,2.47
2022-07-26T00:23:35.058Z,3.50
2022-07-26T00:26:02.466Z,2.97
2022-07-26T00:28:29.931Z,2.83
2022-07-26T00:30:57.647Z,2.45
2022-07-26T00:33:25.128Z,3.03
2022-07-26T00:35:52.510Z,2.65
2022-07-26T00:38:20.188Z,2.37
2022-07-26T00:40:47.667Z,3.05
2022-07-26T00:43:15.063Z,2.70
2022-07-26T00:45:43.027Z,4.05
2022-07-26T00:48:10.648Z,2.17
2022-07-26T00:50:38.121Z,2.80
2022-07-26T00:53:05.825Z,3.37
2022-07-26T00:55:33.237Z,2.20
2022-07-26T00:58:03.782Z,3.65
2022-07-26T01:00:31.496Z,2.35
2022-07-26T01:03:00.578Z,3.55
2022-07-26T01:05:28.356Z,3.60
2022-07-26T01:07:56.527Z,4.43
2022-07-26T01:10:23.994Z,2.70
2022-07-26T01:12:51.429Z,2.83
2022-07-26T01:15:19.513Z,3.20
2022-07-26T01:17:47.456Z,2.85
2022-07-26T01:20:14.991Z,2.78
2022-07-26T01:22:42.709Z,2.45
2022-07-26T01:25:10.401Z,4.55
2022-07-26T01:27:40.588Z,2.40
2022-07-26T01:30:10.492Z,2.95
2022-07-26T01:32:38.006Z,3.17
2022-07-26T01:35:07.190Z,2.92
2022-07-26T01:37:34.838Z,2.40
2022-07-26T01:40:02.623Z,1.92
2022-07-26T01:42:30.021Z,1.98
2022-07-26T01:44:57.757Z,4.28
2022-07-26T01:47:25.152Z,2.30
2022-07-26T01:49:52.547Z,2.40
2022-07-26T01:52:20.206Z,2.92
2022-07-26T01:54:47.702Z,2.22
2022-07-26T01:57:15.117Z,2.60
2022-07-26T01:59:42.885Z,4.65
2022-07-26T02:02:10.659Z,4.32
2022-07-26T02:04:57.385Z,3.67
2022-07-26T02:07:28.867Z,2.87
2022-07-26T02:09:57.179Z,2.47
2022-07-26T02:12:25.570Z,1.90
2022-07-26T02:14:52.960Z,2.97
2022-07-26T02:17:20.630Z,3.83
2022-07-26T02:19:48.067Z,2.12
2022-07-26T02:22:15.478Z,3.47
2022-07-26T02:24:43.249Z,3.42
2022-07-26T02:27:11.126Z,2.62
2022-07-26T02:29:38.737Z,2.67
2022-07-26T02:32:06.872Z,3.00
2022-07-26T02:34:34.392Z,2.97
2022-07-26T02:37:01.803Z,2.37
2022-07-26T02:39:29.789Z,2.65
2022-07-26T02:41:58.941Z,3.08
2022-07-26T02:44:27.156Z,4.40
2022-07-26T02:46:55.060Z,2.30
2022-07-26T02:49:22.811Z,2.97
2022-07-26T02:51:50.200Z,2.70
2022-07-26T02:54:17.920Z,3.55
2022-07-26T02:56:45.299Z,2.97
2022-07-26T02:59:12.769Z,2.85
2022-07-26T03:01:40.604Z,3.97
2022-07-26T03:04:08.369Z,2.50
2022-07-26T03:06:36.023Z,2.92
2022-07-26T03:09:03.988Z,2.75
2022-07-26T03:11:31.452Z,3.00
2022-07-26T03:13:58.860Z,2.70
2022-07-26T03:16:29.631Z,3.28
2022-07-26T03:18:57.784Z,3.85
2022-07-26T03:21:25.200Z,2.28
2022-07-26T03:23:53.532Z,2.28
2022-07-26T03:26:21.087Z,4.00
2022-07-26T03:28:48.502Z,2.85
2022-07-26T03:31:16.219Z,2.47
2022-07-26T03:33:43.646Z,2.78
2022-07-26T03:36:11.552Z,2.28
2022-07-26T03:38:43.205Z,4.68
2022-07-26T03:41:13.503Z,3.12
2022-07-26T03:43:41.369Z,2.58
2022-07-26T03:46:09.207Z,3.25
2022-07-26T03:48:36.843Z,2.78
2022-07-26T03:51:06.659Z,3.40
2022-07-26T03:53:34.637Z,3.45
2022-07-26T03:56:21.338Z,3.60
2022-07-26T03:58:49.074Z,5.18
2022-07-26T04:01:16.519Z,2.90
2022-07-26T04:03:47.519Z,2.67
2022-07-26T04:06:15.372Z,2.17
2022-07-26T04:08:43.105Z,3.05
2022-07-26T04:11:11.048Z,3.15
2022-07-26T04:13:38.450Z,3.17
2022-07-26T04:16:06.653Z,2.90
2022-07-26T04:18:34.788Z,4.22
2022-07-26T04:21:02.289Z,3.08
2022-07-26T04:23:29.764Z,3.67
2022-07-26T04:25:57.453Z,3.28
2022-07-26T04:28:28.792Z,6.62
2022-07-26T04:30:57.695Z,5.43
2022-07-26T04:33:25.749Z,4.97
2022-07-26T04:35:53.546Z,3.90
2022-07-26T04:38:20.934Z,3.50
2022-07-26T04:40:50.487Z,3.70
2022-07-26T04:43:18.445Z,3.00
2022-07-26T04:45:46.419Z,2.87
2022-07-26T04:48:15.181Z,3.22
2022-07-26T04:50:43.661Z,3.60
2022-07-26T04:53:11.282Z,4.03
2022-07-26T04:55:39.524Z,3.72
2022-07-26T04:58:07.043Z,3.25
2022-07-26T05:00:51.081Z,3.85
2022-07-26T05:03:25.066Z,4.32
2022-07-26T05:05:52.729Z,3.78
2022-07-26T05:08:20.386Z,4.22
2022-07-26T05:10:53.131Z,3.72
2022-07-26T05:13:25.246Z,3.47
2022-07-26T05:15:59.737Z,3.95
2022-07-26T05:18:27.662Z,3.33
2022-07-26T05:20:57.719Z,3.80
2022-07-26T05:23:25.162Z,5.35
2022-07-26T05:25:52.560Z,3.75
2022-07-26T05:28:20.225Z,3.92
2022-07-26T05:30:47.692Z,2.60
2022-07-26T05:33:16.704Z,5.15
2022-07-26T05:35:44.566Z,4.50
2022-07-26T05:38:11.962Z,5.93
2022-07-26T05:40:39.367Z,4.35
2022-07-26T05:43:07.453Z,5.00
2022-07-26T05:45:34.889Z,4.10
2022-07-26T05:48:02.355Z,3.78
2022-07-26T05:50:30.115Z,3.75
2022-07-26T05:52:57.503Z,5.93
2022-07-26T05:55:24.891Z,3.78
2022-07-26T05:57:52.647Z,6.65
2022-07-26T06:00:20.912Z,4.60
2022-07-26T06:02:48.676Z,3.75
2022-07-26T06:05:16.245Z,5.35
2022-07-26T06:07:43.646Z,2.90
2022-07-26T06:10:11.341Z,3.67
2022-07-26T06:12:38.799Z,4.20
2022-07-26T06:15:15.612Z,6.90
2022-07-26T06:17:43.657Z,3.95
2022-07-26T06:20:11.476Z,5.37
2022-07-26T06:22:38.903Z,3.95
2022-07-26T06:25:06.969Z,4.25
2022-07-26T06:27:34.419Z,4.15
2022-07-26T06:30:01.897Z,4.65
2022-07-26T06:32:29.571Z,3.83
2022-07-26T06:34:56.989Z,6.05
2022-07-26T06:37:24.402Z,4.20
2022-07-26T06:39:52.630Z,3.62
2022-07-26T06:42:20.202Z,4.18
2022-07-26T06:44:47.602Z,3.80
2022-07-26T06:47:15.327Z,4.62
2022-07-26T06:49:44.803Z,3.60
2022-07-26T06:52:12.401Z,5.47
2022-07-26T06:54:40.073Z,3.55
2022-07-26T06:57:08.151Z,3.85
2022-07-26T06:59:36.124Z,5.35
2022-07-26T07:02:04.680Z,4.82
2022-07-26T07:04:34.286Z,3.60
2022-07-26T07:07:08.518Z,4.12
2022-07-26T07:09:37.601Z,4.25
2022-07-26T07:12:10.093Z,6.75
2022-07-26T07:14:39.148Z,4.05
2022-07-26T07:17:10.542Z,3.78
2022-07-26T07:19:40.854Z,3.62
2022-07-26T07:22:11.861Z,3.67
2022-07-26T07:24:40.765Z,5.25
2022-07-26T07:27:09.116Z,3.33
2022-07-26T07:29:38.764Z,7.35
2022-07-26T07:32:18.153Z,3.17
2022-07-26T07:34:47.937Z,4.55
2022-07-26T07:37:16.815Z,4.00
2022-07-26T07:39:44.347Z,3.20
2022-07-26T07:42:19.500Z,4.00
2022-07-26T07:44:47.440Z,4.87
2022-07-26T07:47:14.965Z,3.50
2022-07-26T07:49:43.038Z,2.65
2022-07-26T07:52:10.465Z,4.55
2022-07-26T07:54:37.858Z,3.40
2022-07-26T07:57:05.615Z,3.03
2022-07-26T07:59:33.004Z,5.07
2022-07-26T08:02:06.449Z,3.03
2022-07-26T08:04:34.171Z,3.67
2022-07-26T08:07:01.669Z,3.22
2022-07-26T08:09:29.102Z,4.62
2022-07-26T08:11:56.750Z,3.25
2022-07-26T08:14:24.332Z,3.87
2022-07-26T08:16:52.312Z,2.75
2022-07-26T08:19:20.055Z,4.05
2022-07-26T08:21:50.024Z,3.17
2022-07-26T08:24:17.756Z,3.75
2022-07-26T08:26:45.569Z,3.33
2022-07-26T08:29:13.283Z,2.75
2022-07-26T08:31:40.916Z,2.58
2022-07-26T08:34:08.659Z,3.35
2022-07-26T08:36:36.045Z,3.10
2022-07-26T08:39:03.866Z,3.78
2022-07-26T08:41:31.582Z,3.85
2022-07-26T08:44:09.664Z,4.37
2022-07-26T08:46:39.323Z,3.45
2022-07-26T08:49:08.618Z,2.83
2022-07-26T08:51:43.201Z,3.62
2022-07-26T08:54:14.341Z,3.85
2022-07-26T08:56:50.403Z,3.22
2022-07-26T08:59:21.174Z,3.97
2022-07-26T09:01:57.282Z,5.82
2022-07-26T09:04:32.690Z,3.47
2022-07-26T09:07:03.360Z,3.17
2022-07-26T09:09:35.681Z,4.00
2022-07-26T09:12:20.250Z,3.35
2022-07-26T09:14:48.407Z,3.60
2022-07-26T09:17:20.955Z,3.78
2022-07-26T09:20:11.730Z,3.92
2022-07-26T09:22:56.632Z,3.30
2022-07-26T09:25:25.143Z,3.20
2022-07-26T09:27:52.918Z,3.33
2022-07-26T09:30:20.881Z,3.58
2022-07-26T09:33:06.437Z,3.37
2022-07-26T09:35:50.393Z,3.50
2022-07-26T09:38:19.877Z,4.05
2022-07-26T09:40:50.706Z,3.65
2022-07-26T09:43:24.163Z,3.47
2022-07-26T09:46:07.157Z,4.05
2022-07-26T09:49:07.098Z,3.80
2022-07-26T09:51:41.502Z,3.92
2022-07-26T09:54:17.169Z,4.72
2022-07-26T09:56:51.273Z,3.85
2022-07-26T09:59:21.595Z,4.20
2022-07-26T10:01:50.715Z,3.72
2022-07-26T10:04:18.974Z,3.92
2022-07-26T10:06:46.706Z,4.62
2022-07-26T10:09:37.645Z,5.25
2022-07-26T10:12:09.466Z,5.28
2022-07-26T10:14:38.153Z,4.65
2022-07-26T10:17:34.955Z,7.65
2022-07-26T10:20:16.856Z,5.70
2022-07-26T10:22:52.476Z,5.82
2022-07-26T10:25:20.110Z,5.12
2022-07-26T10:27:52.556Z,5.65
2022-07-26T10:30:24.016Z,4.68
2022-07-26T10:32:51.796Z,6.03
2022-07-26T10:35:34.543Z,6.28
2022-07-26T10:38:08.055Z,5.25
2022-07-26T10:40:36.883Z,5.82
2022-07-26T10:46:13.418Z,6.65
2022-07-26T10:49:04.074Z,5.90
2022-07-26T10:51:40.337Z,5.50
2022-07-26T10:54:13.883Z,5.72
2022-07-26T10:56:41.652Z,6.70
2022-07-26T10:59:09.622Z,7.03
2022-07-26T11:01:39.436Z,5.95
2022-07-26T11:04:19.798Z,6.15
2022-07-26T11:06:47.650Z,6.18
2022-07-26T11:09:16.090Z,6.37
2022-07-26T11:11:47.045Z,5.47
2022-07-26T11:14:17.906Z,5.05
2022-07-26T11:16:48.014Z,5.10
2022-07-26T11:19:20.743Z,5.10
2022-07-26T11:21:56.129Z,4.85
2022-07-26T11:24:24.069Z,5.70
2022-07-26T11:26:51.478Z,5.25
2022-07-26T11:29:37.970Z,5.68
2022-07-26T11:32:19.059Z,4.72
2022-07-26T11:34:47.886Z,5.18
2022-07-26T11:37:16.032Z,4.85
2022-07-26T11:39:43.492Z,5.32
2022-07-26T11:42:19.694Z,4.75
2022-07-26T11:44:49.017Z,5.28
2022-07-26T11:47:20.175Z,5.37
2022-07-26T11:50:00.208Z,6.12
2022-07-26T11:52:36.963Z,4.95
2022-07-26T11:55:05.035Z,5.43
2022-07-26T11:57:32.915Z,4.93
2022-07-26T12:00:01.035Z,5.80
2022-07-26T12:02:39.055Z,6.43
2022-07-26T12:05:28.388Z,6.75
2022-07-26T12:08:00.603Z,5.65
2022-07-26T12:10:28.632Z,6.25
2022-07-26T12:13:15.930Z,5.93
2022-07-26T12:15:49.235Z,5.10
2022-07-26T12:18:24.736Z,6.45
2022-07-26T12:21:07.117Z,5.87
2022-07-26T12:23:49.411Z,5.95
2022-07-26T12:26:22.066Z,7.75
2022-07-26T12:28:49.494Z,6.10
2022-07-26T12:31:27.098Z,5.80
2022-07-26T12:33:54.793Z,5.12
2022-07-26T12:36:27.861Z,6.37
2022-07-26T12:39:00.401Z,5.32
2022-07-26T12:41:35.776Z,5.00
2022-07-26T12:44:04.214Z,4.68
2022-07-26T12:46:36.039Z,5.00
2022-07-26T12:49:04.272Z,4.80
2022-07-26T12:51:32.180Z,5.25
2022-07-26T12:53:59.655Z,5.55
2022-07-26T12:56:27.092Z,7.12
2022-07-26T12:59:01.118Z,5.25
2022-07-26T13:01:29.840Z,5.05
2022-07-26T13:03:57.774Z,6.00
2022-07-26T13:06:25.261Z,5.50
2022-07-26T13:08:52.663Z,4.90
2022-07-26T13:11:20.316Z,5.05
2022-07-26T13:13:47.791Z,6.30
2022-07-26T13:16:15.309Z,4.32
2022-07-26T13:18:42.954Z,5.65
2022-07-26T13:21:11.286Z,7.37
2022-07-26T13:23:39.650Z,6.85
2022-07-26T13:26:09.340Z,4.60
2022-07-26T13:28:37.782Z,5.07
2022-07-26T13:31:06.027Z,5.18
2022-07-26T13:33:33.787Z,5.10
2022-07-26T13:36:01.187Z,4.87
2022-07-26T13:38:31.312Z,3.80
2022-07-26T13:40:59.865Z,4.35
2022-07-26T13:43:27.334Z,3.78
2022-07-26T13:45:54.808Z,4.45
2022-07-26T13:48:22.498Z,5.10
2022-07-26T13:50:49.945Z,4.22
2022-07-26T13:53:17.324Z,4.12
2022-07-26T13:55:44.954Z,4.22
2022-07-26T13:58:12.408Z,3.62
2022-07-26T14:00:40.732Z,4.05
2022-07-26T14:03:08.666Z,3.95
2022-07-26T14:05:36.116Z,4.05
2022-07-26T14:08:03.651Z,3.58
2022-07-26T14:10:31.363Z,4.43
2022-07-26T14:12:59.153Z,8.60
2022-07-26T14:15:26.558Z,4.37
2022-07-26T14:17:54.294Z,3.78
2022-07-26T14:20:21.918Z,5.45
2022-07-26T14:22:53.567Z,4.87
2022-07-26T14:25:25.460Z,4.45
2022-07-26T14:27:54.049Z,5.72
2022-07-26T14:30:22.663Z,4.90
2022-07-26T14:32:50.184Z,5.45
2022-07-26T14:35:18.012Z,5.10
2022-07-26T14:37:46.211Z,5.35
2022-07-26T14:40:15.394Z,5.68
2022-07-26T14:42:43.424Z,4.72
2022-07-26T14:45:11.582Z,5.62
2022-07-26T14:47:41.616Z,7.15
2022-07-26T14:50:10.424Z,5.70
2022-07-26T14:52:43.197Z,5.95
2022-07-26T14:55:10.945Z,6.50
2022-07-26T14:57:40.046Z,4.57
2022-07-26T15:00:10.155Z,4.95
2022-07-26T15:02:45.210Z,5.22
2022-07-26T15:05:14.259Z,5.35
2022-07-26T15:07:42.400Z,5.78
2022-07-26T15:10:12.876Z,5.07
2022-07-26T15:12:41.228Z,5.30
2022-07-26T15:15:09.890Z,5.50
2022-07-26T15:17:37.675Z,4.68
2022-07-26T15:20:06.088Z,5.05
2022-07-26T15:22:33.413Z,6.10
2022-07-26T15:25:00.810Z,6.50
2022-07-26T15:27:28.925Z,5.57
2022-07-26T15:30:02.620Z,5.65
2022-07-26T15:32:31.737Z,5.07
2022-07-26T15:34:59.236Z,6.90
2022-07-26T15:37:26.802Z,5.75
2022-07-26T15:39:54.546Z,6.07
2022-07-26T15:42:23.293Z,5.30
2022-07-26T15:44:51.065Z,7.32
2022-07-26T15:47:43.511Z,5.43
2022-07-26T15:50:08.248Z,5.05
2022-07-26T15:52:40.541Z,5.35
2022-07-26T15:55:09.217Z,5.93
2022-07-26T15:57:36.896Z,5.00
2022-07-26T16:00:11.698Z,6.12
2022-07-26T16:02:40.509Z,8.43
2022-07-26T16:05:08.927Z,5.65
2022-07-26T16:07:36.381Z,5.40
2022-07-26T16:10:05.237Z,6.65
2022-07-26T16:12:33.558Z,6.55
2022-07-26T16:15:01.154Z,7.18
2022-07-26T16:17:28.974Z,6.03
2022-07-26T16:19:56.696Z,5.35
2022-07-26T16:22:24.463Z,6.80
2022-07-26T16:24:52.167Z,7.43
2022-07-26T16:27:19.565Z,7.28
2022-07-26T16:29:51.831Z,8.77
2022-07-26T16:32:21.352Z,6.95
2022-07-26T16:34:49.133Z,5.95
2022-07-26T16:37:16.553Z,7.07
2022-07-26T16:40:03.596Z,7.68
2022-07-26T16:42:31.073Z,6.90
2022-07-26T16:44:58.777Z,7.90
2022-07-26T16:47:26.474Z,7.90
2022-07-26T16:49:53.955Z,8.13
2022-07-26T16:52:22.864Z,7.62
2022-07-26T16:54:50.294Z,7.62
2022-07-26T16:57:17.674Z,9.75
2022-07-26T16:59:45.306Z,9.68
2022-07-26T17:02:12.836Z,9.60
2022-07-26T17:04:40.348Z,8.95
2022-07-26T17:07:24.441Z,9.73
2022-07-26T17:09:53.079Z,9.15
2022-07-26T17:12:21.138Z,8.95
2022-07-26T17:14:48.605Z,9.35
2022-07-26T17:17:16.074Z,10.02
2022-07-26T17:19:43.736Z,10.32
2022-07-26T17:22:11.133Z,11.30
2022-07-26T17:24:38.567Z,9.80
2022-07-26T17:27:06.400Z,8.43
2022-07-26T17:29:33.831Z,12.00
2022-07-26T17:32:01.276Z,10.02
2022-07-26T17:34:29.072Z,9.27
2022-07-26T17:36:58.513Z,11.57
2022-07-26T17:39:34.132Z,9.02
2022-07-26T17:42:15.617Z,7.97
2022-07-26T17:44:42.995Z,10.90
2022-07-26T17:47:18.231Z,9.80
2022-07-26T17:50:19.491Z,10.13
2022-07-26T17:52:50.476Z,9.00
2022-07-26T17:55:20.937Z,9.07
2022-07-26T17:57:49.943Z,8.73
2022-07-26T18:00:19.415Z,10.93
2022-07-26T18:02:47.574Z,8.15
2022-07-26T18:05:15.122Z,9.52
2022-07-26T18:07:42.562Z,8.52
2022-07-26T18:10:11.235Z,9.20
2022-07-26T18:12:39.251Z,9.30
2022-07-26T18:15:07.651Z,9.77
2022-07-26T18:17:35.323Z,9.57
2022-07-26T18:20:02.895Z,10.02
2022-07-26T18:22:30.306Z,9.35
2022-07-26T18:24:58.018Z,9.63
2022-07-26T18:27:28.413Z,9.93
2022-07-26T18:29:56.655Z,11.30
2022-07-26T18:32:24.838Z,10.52
2022-07-26T18:34:53.368Z,10.55
2022-07-26T18:37:23.692Z,10.20
2022-07-26T18:39:57.052Z,11.90
2022-07-26T18:42:25.902Z,11.57
2022-07-26T18:44:53.566Z,10.88
2022-07-26T18:47:21.185Z,10.82
2022-07-26T18:49:48.731Z,12.48
2022-07-26T18:52:17.932Z,11.80
2022-07-26T18:54:56.411Z,15.10
2022-07-26T18:57:24.305Z,13.18
2022-07-26T18:59:51.723Z,11.60
2022-07-26T19:02:19.109Z,11.10
2022-07-26T19:04:46.767Z,11.57
2022-07-26T19:07:14.171Z,12.37
2022-07-26T19:09:41.560Z,11.57
2022-07-26T19:12:09.288Z,11.52
2022-07-26T19:14:36.716Z,11.38
2022-07-26T19:17:05.894Z,11.43
2022-07-26T19:19:33.552Z,11.75
2022-07-26T19:22:00.926Z,11.05
2022-07-26T19:24:41.763Z,11.48
2022-07-26T19:27:09.656Z,10.88
2022-07-26T19:29:37.725Z,10.10
2022-07-26T19:32:05.410Z,11.48
2022-07-26T19:34:33.140Z,9.18
2022-07-26T19:37:00.527Z,11.18
2022-07-26T19:39:28.027Z,8.88
2022-07-26T19:41:55.753Z,10.05
2022-07-26T19:44:23.180Z,10.27
2022-07-26T19:46:55.519Z,12.20
2022-07-26T19:49:25.285Z,10.95
2022-07-26T19:51:52.807Z,11.60
2022-07-26T19:54:21.329Z,10.23
2022-07-26T19:56:49.102Z,10.23
2022-07-26T19:59:22.703Z,10.13
2022-07-26T20:01:52.975Z,10.07
2022-07-26T20:04:21.597Z,10.07
2022-07-26T20:06:49.831Z,9.82
2022-07-26T20:09:17.230Z,12.23
2022-07-26T20:11:50.689Z,9.27
2022-07-26T20:14:19.471Z,10.30
2022-07-26T20:16:50.427Z,10.15
2022-07-26T20:19:20.313Z,11.95
2022-07-26T20:21:48.035Z,13.02
2022-07-26T20:24:15.445Z,10.05
2022-07-26T20:26:42.927Z,11.12
2022-07-26T20:29:11.588Z,12.20
2022-07-26T20:31:39.249Z,11.95
2022-07-26T20:34:06.665Z,11.52
2022-07-26T20:36:34.325Z,11.48
2022-07-26T20:39:02.287Z,10.38
2022-07-26T20:41:33.979Z,10.88
2022-07-26T20:44:01.872Z,10.73
2022-07-26T20:46:29.338Z,11.27
2022-07-26T20:48:57.270Z,11.65
2022-07-26T20:51:25.430Z,11.82
2022-07-26T20:53:52.848Z,11.40
2022-07-26T20:56:20.253Z,12.18
2022-07-26T20:58:47.972Z,10.60
2022-07-26T21:01:15.559Z,11.48
2022-07-26T21:03:43.125Z,8.75
2022-07-26T21:06:10.783Z,8.95
2022-07-26T21:08:38.182Z,10.85
2022-07-26T21:11:05.598Z,9.55
2022-07-26T21:13:34.280Z,8.63
2022-07-26T21:16:01.679Z,9.63
2022-07-26T21:18:30.016Z,10.45
2022-07-26T21:20:58.278Z,9.73
2022-07-26T21:23:25.782Z,9.07
2022-07-26T21:25:58.126Z,10.27
2022-07-26T21:28:28.894Z,12.23
2022-07-26T21:30:56.296Z,8.77
2022-07-26T21:33:24.856Z,10.95
2022-07-26T21:35:52.527Z,9.85
2022-07-26T21:38:19.924Z,10.73
2022-07-26T21:40:47.601Z,9.27
2022-07-26T21:43:15.252Z,9.65
2022-07-26T21:45:42.700Z,9.00
2022-07-26T21:48:10.134Z,8.00
2022-07-26T21:50:37.803Z,8.77
2022-07-26T21:53:05.202Z,7.82
2022-07-26T21:55:32.692Z,10.90
2022-07-26T21:58:00.352Z,9.48
2022-07-26T22:00:27.758Z,8.45
2022-07-26T22:02:55.563Z,7.25
2022-07-26T22:05:35.393Z,8.50
2022-07-26T22:08:10.440Z,8.45
2022-07-26T22:10:42.339Z,8.38
2022-07-26T22:13:13.749Z,7.68
2022-07-26T22:15:42.024Z,7.00
2022-07-26T22:18:09.934Z,7.85
2022-07-26T22:20:38.103Z,8.63
2022-07-26T22:23:08.422Z,6.45
2022-07-26T22:25:37.303Z,6.72
2022-07-26T22:28:06.561Z,7.70
2022-07-26T22:30:34.008Z,7.10
2022-07-26T22:33:02.723Z,7.40
2022-07-26T22:35:35.686Z,6.32
2022-07-26T22:38:06.252Z,7.10
2022-07-26T22:40:33.974Z,7.55
2022-07-26T22:43:01.356Z,6.12
2022-07-26T22:45:30.009Z,7.25
2022-07-26T22:47:58.111Z,5.40
2022-07-26T22:50:25.772Z,6.22
2022-07-26T22:52:53.274Z,6.18
2022-07-26T22:55:21.560Z,7.43
2022-07-26T22:57:49.348Z,8.30
2022-07-26T23:00:17.946Z,5.30
2022-07-26T23:02:46.006Z,7.05
2022-07-26T23:05:15.323Z,5.47
2022-07-26T23:07:47.149Z,6.05
2022-07-26T23:10:16.981Z,6.62
2022-07-26T23:12:44.583Z,5.72
2022-07-26T23:15:12.535Z,5.57
2022-07-26T23:17:40.334Z,6.68
2022-07-26T23:20:09.361Z,5.72
2022-07-26T23:22:38.319Z,6.10
2022-07-26T23:25:06.373Z,5.80
2022-07-26T23:27:33.820Z,6.65
2022-07-26T23:30:01.228Z,5.40
2022-07-26T23:32:28.985Z,6.22
2022-07-26T23:34:56.374Z,6.12
2022-07-26T23:37:23.762Z,6.87
2022-07-26T23:39:51.436Z,6.80
2022-07-26T23:42:18.803Z,6.65
2022-07-26T23:44:46.182Z,5.50
2022-07-26T23:47:13.934Z,6.43
2022-07-26T23:49:41.422Z,5.82
2022-07-26T23:52:08.822Z,6.40
2022-07-26T23:54:37.415Z,6.05
2022-07-26T23:57:04.804Z,5.72
2022-07-26T23:59:32.191Z,5.62
